sensor_id;sensor_type;location;lat;lon;timestamp;P1;durP1;ratioP1;P2;durP2;ratioP2
3543;SDS011;1786;52.870;9.578;2023-07-31T00:01:31;5.37;;;2.20;;
3543;SDS011;1786;52.870;9.578;2023-07-31T00:03:58;18.83;;;2.60;;
3543;SDS011;1786;52.870;9.578;2023-07-31T00:06:27;9.37;;;2.70;;
3543;SDS011;1786;52.870;9.578;2023-07-31T00:08:53;15.70;;;3.10;;
3543;SDS011;1786;52.870;9.578;2023-07-31T00:11:20;6.90;;;2.30;;
3543;SDS011;1786;52.870;9.578;2023-07-31T00:13:47;5.93;;;2.20;;
3543;SDS011;1786;52.870;9.578;2023-07-31T00:16:14;5.30;;;2.13;;
3543;SDS011;1786;52.870;9.578;2023-07-31T00:18:41;5.87;;;2.60;;
3543;SDS011;1786;52.870;9.578;2023-07-31T00:21:07;6.20;;;1.87;;
3543;SDS011;1786;52.870;9.578;2023-07-31T00:23:34;7.30;;;2.47;;
3543;SDS011;1786;52.870;9.578;2023-07-31T00:26:01;6.93;;;2.30;;
3543;SDS011;1786;52.870;9.578;2023-07-31T00:28:28;8.33;;;2.10;;
3543;SDS011;1786;52.870;9.578;2023-07-31T00:30:55;13.07;;;2.63;;
3543;SDS011;1786;52.870;9.578;2023-07-31T00:33:25;3.87;;;2.50;;
3543;SDS011;1786;52.870;9.578;2023-07-31T00:35:51;3.07;;;2.43;;
3543;SDS011;1786;52.870;9.578;2023-07-31T00:38:18;4.03;;;2.30;;
3543;SDS011;1786;52.870;9.578;2023-07-31T00:40:45;7.23;;;2.43;;
3543;SDS011;1786;52.870;9.578;2023-07-31T00:43:12;5.20;;;2.10;;
3543;SDS011;1786;52.870;9.578;2023-07-31T00:45:40;5.53;;;3.07;;
3543;SDS011;1786;52.870;9.578;2023-07-31T00:48:07;6.43;;;2.60;;
3543;SDS011;1786;52.870;9.578;2023-07-31T00:50:34;3.40;;;3.20;;
3543;SDS011;1786;52.870;9.578;2023-07-31T00:53:01;3.40;;;3.17;;
3543;SDS011;1786;52.870;9.578;2023-07-31T00:55:28;7.03;;;3.37;;
3543;SDS011;1786;52.870;9.578;2023-07-31T00:57:55;7.93;;;3.23;;
3543;SDS011;1786;52.870;9.578;2023-07-31T01:00:22;6.10;;;3.57;;
3543;SDS011;1786;52.870;9.578;2023-07-31T01:02:49;7.93;;;3.50;;
3543;SDS011;1786;52.870;9.578;2023-07-31T01:05:18;5.77;;;3.67;;
3543;SDS011;1786;52.870;9.578;2023-07-31T01:07:58;4.13;;;3.60;;
3543;SDS011;1786;52.870;9.578;2023-07-31T01:10:41;11.87;;;3.53;;
3543;SDS011;1786;52.870;9.578;2023-07-31T01:13:27;8.43;;;3.60;;
3543;SDS011;1786;52.870;9.578;2023-07-31T01:15:54;3.40;;;3.20;;
3543;SDS011;1786;52.870;9.578;2023-07-31T01:18:21;9.03;;;3.67;;
3543;SDS011;1786;52.870;9.578;2023-07-31T01:20:50;3.77;;;3.50;;
3543;SDS011;1786;52.870;9.578;2023-07-31T01:23:35;9.40;;;3.70;;
3543;SDS011;1786;52.870;9.578;2023-07-31T01:31:13;5.27;;;3.60;;
3543;SDS011;1786;52.870;9.578;2023-07-31T01:33:44;8.33;;;4.63;;
3543;SDS011;1786;52.870;9.578;2023-07-31T01:36:12;4.63;;;4.13;;
3543;SDS011;1786;52.870;9.578;2023-07-31T01:38:39;9.37;;;4.97;;
3543;SDS011;1786;52.870;9.578;2023-07-31T01:41:05;7.70;;;5.27;;
3543;SDS011;1786;52.870;9.578;2023-07-31T01:43:32;6.60;;;4.53;;
3543;SDS011;1786;52.870;9.578;2023-07-31T01:45:59;6.83;;;5.07;;
3543;SDS011;1786;52.870;9.578;2023-07-31T01:48:25;7.93;;;5.30;;
3543;SDS011;1786;52.870;9.578;2023-07-31T01:50:53;9.13;;;5.80;;
3543;SDS011;1786;52.870;9.578;2023-07-31T01:53:20;5.97;;;5.37;;
3543;SDS011;1786;52.870;9.578;2023-07-31T01:55:46;5.63;;;5.10;;
3543;SDS011;1786;52.870;9.578;2023-07-31T01:58:13;5.17;;;4.80;;
3543;SDS011;1786;52.870;9.578;2023-07-31T02:00:40;5.83;;;5.00;;
3543;SDS011;1786;52.870;9.578;2023-07-31T02:03:07;5.93;;;5.43;;
3543;SDS011;1786;52.870;9.578;2023-07-31T02:05:34;4.70;;;4.40;;
3543;SDS011;1786;52.870;9.578;2023-07-31T02:08:01;7.37;;;4.77;;
3543;SDS011;1786;52.870;9.578;2023-07-31T02:10:31;5.47;;;5.00;;
3543;SDS011;1786;52.870;9.578;2023-07-31T02:12:59;11.63;;;5.20;;
3543;SDS011;1786;52.870;9.578;2023-07-31T02:15:25;7.53;;;5.40;;
3543;SDS011;1786;52.870;9.578;2023-07-31T02:17:52;5.73;;;5.20;;
3543;SDS011;1786;52.870;9.578;2023-07-31T02:20:19;9.13;;;5.53;;
3543;SDS011;1786;52.870;9.578;2023-07-31T02:22:46;5.33;;;4.93;;
3543;SDS011;1786;52.870;9.578;2023-07-31T02:25:12;5.70;;;5.30;;
3543;SDS011;1786;52.870;9.578;2023-07-31T02:27:39;6.20;;;5.60;;
3543;SDS011;1786;52.870;9.578;2023-07-31T02:30:06;6.87;;;6.23;;
3543;SDS011;1786;52.870;9.578;2023-07-31T02:32:33;6.13;;;5.67;;
3543;SDS011;1786;52.870;9.578;2023-07-31T02:35:00;7.27;;;6.43;;
3543;SDS011;1786;52.870;9.578;2023-07-31T02:37:28;8.63;;;6.13;;
3543;SDS011;1786;52.870;9.578;2023-07-31T02:39:55;6.13;;;5.57;;
3543;SDS011;1786;52.870;9.578;2023-07-31T02:42:22;10.47;;;6.17;;
3543;SDS011;1786;52.870;9.578;2023-07-31T02:44:48;7.37;;;6.30;;
3543;SDS011;1786;52.870;9.578;2023-07-31T02:47:17;7.23;;;6.57;;
3543;SDS011;1786;52.870;9.578;2023-07-31T02:49:44;7.00;;;6.50;;
3543;SDS011;1786;52.870;9.578;2023-07-31T02:52:11;7.20;;;6.60;;
3543;SDS011;1786;52.870;9.578;2023-07-31T02:54:37;7.00;;;6.40;;
3543;SDS011;1786;52.870;9.578;2023-07-31T02:57:05;7.90;;;6.70;;
3543;SDS011;1786;52.870;9.578;2023-07-31T02:59:31;6.90;;;6.30;;
3543;SDS011;1786;52.870;9.578;2023-07-31T03:01:58;7.83;;;5.73;;
3543;SDS011;1786;52.870;9.578;2023-07-31T03:04:25;6.33;;;5.83;;
3543;SDS011;1786;52.870;9.578;2023-07-31T03:06:51;9.63;;;6.27;;
3543;SDS011;1786;52.870;9.578;2023-07-31T03:09:18;5.77;;;5.27;;
3543;SDS011;1786;52.870;9.578;2023-07-31T03:11:46;6.70;;;6.20;;
3543;SDS011;1786;52.870;9.578;2023-07-31T03:14:12;7.43;;;5.87;;
3543;SDS011;1786;52.870;9.578;2023-07-31T03:16:41;6.60;;;6.00;;
3543;SDS011;1786;52.870;9.578;2023-07-31T03:19:08;7.27;;;6.57;;
3543;SDS011;1786;52.870;9.578;2023-07-31T03:21:35;7.60;;;6.80;;
3543;SDS011;1786;52.870;9.578;2023-07-31T03:24:01;11.00;;;7.67;;
3543;SDS011;1786;52.870;9.578;2023-07-31T03:26:30;7.63;;;7.00;;
3543;SDS011;1786;52.870;9.578;2023-07-31T03:28:57;7.73;;;7.03;;
3543;SDS011;1786;52.870;9.578;2023-07-31T03:31:25;7.60;;;6.77;;
3543;SDS011;1786;52.870;9.578;2023-07-31T03:33:52;7.17;;;6.13;;
3543;SDS011;1786;52.870;9.578;2023-07-31T03:36:19;6.13;;;5.77;;
3543;SDS011;1786;52.870;9.578;2023-07-31T03:38:46;7.60;;;6.07;;
3543;SDS011;1786;52.870;9.578;2023-07-31T03:41:12;7.13;;;6.53;;
3543;SDS011;1786;52.870;9.578;2023-07-31T03:43:39;7.03;;;6.37;;
3543;SDS011;1786;52.870;9.578;2023-07-31T03:46:06;6.37;;;5.90;;
3543;SDS011;1786;52.870;9.578;2023-07-31T03:48:33;8.60;;;6.57;;
3543;SDS011;1786;52.870;9.578;2023-07-31T03:51:00;6.53;;;6.03;;
3543;SDS011;1786;52.870;9.578;2023-07-31T03:53:27;6.77;;;6.07;;
3543;SDS011;1786;52.870;9.578;2023-07-31T03:55:54;6.73;;;6.20;;
3543;SDS011;1786;52.870;9.578;2023-07-31T03:58:20;7.33;;;6.70;;
3543;SDS011;1786;52.870;9.578;2023-07-31T04:00:47;6.70;;;6.20;;
3543;SDS011;1786;52.870;9.578;2023-07-31T04:03:15;7.53;;;6.17;;
3543;SDS011;1786;52.870;9.578;2023-07-31T04:05:42;6.70;;;6.20;;
3543;SDS011;1786;52.870;9.578;2023-07-31T04:08:08;6.00;;;5.50;;
3543;SDS011;1786;52.870;9.578;2023-07-31T04:10:35;6.60;;;6.00;;
3543;SDS011;1786;52.870;9.578;2023-07-31T04:13:02;7.53;;;6.10;;
3543;SDS011;1786;52.870;9.578;2023-07-31T04:15:28;5.20;;;4.90;;
3543;SDS011;1786;52.870;9.578;2023-07-31T04:17:55;6.33;;;5.57;;
3543;SDS011;1786;52.870;9.578;2023-07-31T04:20:22;5.47;;;5.17;;
3543;SDS011;1786;52.870;9.578;2023-07-31T04:22:49;6.27;;;5.67;;
3543;SDS011;1786;52.870;9.578;2023-07-31T04:25:16;5.10;;;4.80;;
3543;SDS011;1786;52.870;9.578;2023-07-31T04:27:42;5.93;;;5.40;;
3543;SDS011;1786;52.870;9.578;2023-07-31T04:30:10;5.30;;;4.97;;
3543;SDS011;1786;52.870;9.578;2023-07-31T04:32:37;5.67;;;5.27;;
3543;SDS011;1786;52.870;9.578;2023-07-31T04:35:05;7.90;;;4.60;;
3543;SDS011;1786;52.870;9.578;2023-07-31T04:37:32;5.77;;;5.27;;
3543;SDS011;1786;52.870;9.578;2023-07-31T04:39:59;5.43;;;4.93;;
3543;SDS011;1786;52.870;9.578;2023-07-31T04:42:25;5.13;;;4.90;;
3543;SDS011;1786;52.870;9.578;2023-07-31T04:44:52;6.00;;;5.50;;
3543;SDS011;1786;52.870;9.578;2023-07-31T04:47:19;5.23;;;4.93;;
3543;SDS011;1786;52.870;9.578;2023-07-31T04:49:46;4.57;;;4.30;;
3543;SDS011;1786;52.870;9.578;2023-07-31T04:52:13;4.83;;;4.43;;
3543;SDS011;1786;52.870;9.578;2023-07-31T04:54:39;4.90;;;4.60;;
3543;SDS011;1786;52.870;9.578;2023-07-31T04:57:06;4.20;;;4.00;;
3543;SDS011;1786;52.870;9.578;2023-07-31T04:59:33;4.90;;;4.60;;
3543;SDS011;1786;52.870;9.578;2023-07-31T05:02:00;4.73;;;4.33;;
3543;SDS011;1786;52.870;9.578;2023-07-31T05:04:27;3.60;;;3.30;;
3543;SDS011;1786;52.870;9.578;2023-07-31T05:06:53;3.63;;;3.50;;
3543;SDS011;1786;52.870;9.578;2023-07-31T05:09:20;3.43;;;3.23;;
3543;SDS011;1786;52.870;9.578;2023-07-31T05:11:47;3.33;;;3.23;;
3543;SDS011;1786;52.870;9.578;2023-07-31T05:14:14;3.47;;;3.37;;
3543;SDS011;1786;52.870;9.578;2023-07-31T05:16:42;4.00;;;3.67;;
3543;SDS011;1786;52.870;9.578;2023-07-31T05:19:09;3.40;;;3.30;;
3543;SDS011;1786;52.870;9.578;2023-07-31T05:21:36;4.70;;;3.57;;
3543;SDS011;1786;52.870;9.578;2023-07-31T05:24:03;6.27;;;3.20;;
3543;SDS011;1786;52.870;9.578;2023-07-31T05:26:30;7.47;;;3.37;;
3543;SDS011;1786;52.870;9.578;2023-07-31T05:28:57;3.17;;;3.07;;
3543;SDS011;1786;52.870;9.578;2023-07-31T05:31:24;2.90;;;2.80;;
3543;SDS011;1786;52.870;9.578;2023-07-31T05:33:51;2.33;;;2.23;;
3543;SDS011;1786;52.870;9.578;2023-07-31T05:36:17;2.80;;;2.60;;
3543;SDS011;1786;52.870;9.578;2023-07-31T05:38:44;3.47;;;2.30;;
3543;SDS011;1786;52.870;9.578;2023-07-31T05:41:11;2.07;;;1.97;;
3543;SDS011;1786;52.870;9.578;2023-07-31T05:43:39;3.13;;;1.90;;
3543;SDS011;1786;52.870;9.578;2023-07-31T05:46:06;1.60;;;1.60;;
3543;SDS011;1786;52.870;9.578;2023-07-31T05:48:33;2.83;;;1.70;;
3543;SDS011;1786;52.870;9.578;2023-07-31T05:51:03;2.23;;;1.97;;
3543;SDS011;1786;52.870;9.578;2023-07-31T05:53:29;1.80;;;1.70;;
3543;SDS011;1786;52.870;9.578;2023-07-31T05:55:56;1.73;;;1.43;;
3543;SDS011;1786;52.870;9.578;2023-07-31T05:58:23;1.87;;;1.87;;
3543;SDS011;1786;52.870;9.578;2023-07-31T06:00:49;1.50;;;1.40;;
3543;SDS011;1786;52.870;9.578;2023-07-31T06:03:16;1.70;;;1.70;;
3543;SDS011;1786;52.870;9.578;2023-07-31T06:05:43;1.40;;;1.40;;
3543;SDS011;1786;52.870;9.578;2023-07-31T06:08:10;4.60;;;1.67;;
3543;SDS011;1786;52.870;9.578;2023-07-31T06:10:38;1.50;;;1.50;;
3543;SDS011;1786;52.870;9.578;2023-07-31T06:13:05;1.27;;;1.27;;
3543;SDS011;1786;52.870;9.578;2023-07-31T06:15:31;3.00;;;1.17;;
3543;SDS011;1786;52.870;9.578;2023-07-31T06:17:58;2.40;;;1.23;;
3543;SDS011;1786;52.870;9.578;2023-07-31T06:20:28;0.90;;;0.90;;
3543;SDS011;1786;52.870;9.578;2023-07-31T06:22:55;1.40;;;1.17;;
3543;SDS011;1786;52.870;9.578;2023-07-31T06:25:22;1.17;;;1.17;;
3543;SDS011;1786;52.870;9.578;2023-07-31T06:27:48;0.80;;;0.80;;
3543;SDS011;1786;52.870;9.578;2023-07-31T06:30:15;1.43;;;1.23;;
3543;SDS011;1786;52.870;9.578;2023-07-31T06:32:42;1.07;;;1.00;;
3543;SDS011;1786;52.870;9.578;2023-07-31T06:35:09;1.00;;;1.00;;
3543;SDS011;1786;52.870;9.578;2023-07-31T06:37:36;0.90;;;0.90;;
3543;SDS011;1786;52.870;9.578;2023-07-31T06:40:07;0.83;;;0.83;;
3543;SDS011;1786;52.870;9.578;2023-07-31T06:42:35;1.13;;;0.90;;
3543;SDS011;1786;52.870;9.578;2023-07-31T06:45:02;0.70;;;0.70;;
3543;SDS011;1786;52.870;9.578;2023-07-31T06:47:29;0.80;;;0.80;;
3543;SDS011;1786;52.870;9.578;2023-07-31T06:49:56;0.70;;;0.70;;
3543;SDS011;1786;52.870;9.578;2023-07-31T06:52:23;0.70;;;0.70;;
3543;SDS011;1786;52.870;9.578;2023-07-31T06:57:48;0.80;;;0.80;;
3543;SDS011;1786;52.870;9.578;2023-07-31T07:00:17;0.60;;;0.60;;
3543;SDS011;1786;52.870;9.578;2023-07-31T07:02:45;0.67;;;0.67;;
3543;SDS011;1786;52.870;9.578;2023-07-31T07:05:16;0.60;;;0.60;;
3543;SDS011;1786;52.870;9.578;2023-07-31T07:07:43;0.60;;;0.60;;
3543;SDS011;1786;52.870;9.578;2023-07-31T07:10:10;0.60;;;0.60;;
3543;SDS011;1786;52.870;9.578;2023-07-31T07:12:37;0.70;;;0.70;;
3543;SDS011;1786;52.870;9.578;2023-07-31T07:15:04;0.60;;;0.60;;
3543;SDS011;1786;52.870;9.578;2023-07-31T07:17:31;0.70;;;0.70;;
3543;SDS011;1786;52.870;9.578;2023-07-31T07:19:58;0.60;;;0.60;;
3543;SDS011;1786;52.870;9.578;2023-07-31T07:22:26;1.27;;;1.07;;
3543;SDS011;1786;52.870;9.578;2023-07-31T07:24:55;0.80;;;0.80;;
3543;SDS011;1786;52.870;9.578;2023-07-31T07:27:22;0.70;;;0.70;;
3543;SDS011;1786;52.870;9.578;2023-07-31T07:29:50;0.70;;;0.70;;
3543;SDS011;1786;52.870;9.578;2023-07-31T07:32:19;0.70;;;0.70;;
3543;SDS011;1786;52.870;9.578;2023-07-31T07:34:47;1.07;;;0.97;;
3543;SDS011;1786;52.870;9.578;2023-07-31T07:37:15;0.90;;;0.90;;
3543;SDS011;1786;52.870;9.578;2023-07-31T07:39:42;1.20;;;1.20;;
3543;SDS011;1786;52.870;9.578;2023-07-31T07:42:09;1.37;;;1.37;;
3543;SDS011;1786;52.870;9.578;2023-07-31T07:44:36;1.40;;;1.30;;
3543;SDS011;1786;52.870;9.578;2023-07-31T07:47:03;2.87;;;1.47;;
3543;SDS011;1786;52.870;9.578;2023-07-31T07:49:33;2.80;;;2.00;;
3543;SDS011;1786;52.870;9.578;2023-07-31T07:52:01;3.50;;;2.40;;
3543;SDS011;1786;52.870;9.578;2023-07-31T07:54:30;4.83;;;2.57;;
3543;SDS011;1786;52.870;9.578;2023-07-31T07:56:57;5.30;;;3.10;;
3543;SDS011;1786;52.870;9.578;2023-07-31T07:59:24;3.00;;;2.80;;
3543;SDS011;1786;52.870;9.578;2023-07-31T08:01:51;7.80;;;3.40;;
3543;SDS011;1786;52.870;9.578;2023-07-31T08:04:17;3.97;;;3.50;;
3543;SDS011;1786;52.870;9.578;2023-07-31T08:06:44;5.93;;;4.60;;
3543;SDS011;1786;52.870;9.578;2023-07-31T08:09:11;14.50;;;4.80;;
3543;SDS011;1786;52.870;9.578;2023-07-31T08:11:38;8.43;;;5.20;;
3543;SDS011;1786;52.870;9.578;2023-07-31T08:14:04;9.63;;;6.57;;
3543;SDS011;1786;52.870;9.578;2023-07-31T08:16:31;8.13;;;6.20;;
3543;SDS011;1786;52.870;9.578;2023-07-31T08:18:58;11.20;;;5.40;;
3543;SDS011;1786;52.870;9.578;2023-07-31T08:21:25;15.53;;;5.53;;
3543;SDS011;1786;52.870;9.578;2023-07-31T08:23:52;11.07;;;5.43;;
3543;SDS011;1786;52.870;9.578;2023-07-31T08:26:20;10.10;;;6.10;;
3543;SDS011;1786;52.870;9.578;2023-07-31T08:28:47;14.23;;;7.20;;
3543;SDS011;1786;52.870;9.578;2023-07-31T08:31:14;13.67;;;6.97;;
3543;SDS011;1786;52.870;9.578;2023-07-31T08:33:41;20.53;;;8.23;;
3543;SDS011;1786;52.870;9.578;2023-07-31T08:36:08;12.87;;;7.13;;
3543;SDS011;1786;52.870;9.578;2023-07-31T08:38:34;16.33;;;6.80;;
3543;SDS011;1786;52.870;9.578;2023-07-31T08:41:04;19.53;;;8.33;;
3543;SDS011;1786;52.870;9.578;2023-07-31T08:43:31;14.33;;;6.87;;
3543;SDS011;1786;52.870;9.578;2023-07-31T08:45:59;11.23;;;7.70;;
3543;SDS011;1786;52.870;9.578;2023-07-31T08:48:28;12.90;;;7.67;;
3543;SDS011;1786;52.870;9.578;2023-07-31T08:50:55;12.90;;;7.33;;
3543;SDS011;1786;52.870;9.578;2023-07-31T08:53:22;20.10;;;7.10;;
3543;SDS011;1786;52.870;9.578;2023-07-31T08:55:49;13.53;;;6.23;;
3543;SDS011;1786;52.870;9.578;2023-07-31T08:58:18;11.37;;;6.57;;
3543;SDS011;1786;52.870;9.578;2023-07-31T09:00:46;12.90;;;6.30;;
3543;SDS011;1786;52.870;9.578;2023-07-31T09:03:14;14.33;;;6.33;;
3543;SDS011;1786;52.870;9.578;2023-07-31T09:05:43;11.47;;;6.07;;
3543;SDS011;1786;52.870;9.578;2023-07-31T09:08:12;16.67;;;6.10;;
3543;SDS011;1786;52.870;9.578;2023-07-31T09:10:40;13.17;;;5.80;;
3543;SDS011;1786;52.870;9.578;2023-07-31T09:13:08;13.40;;;6.90;;
3543;SDS011;1786;52.870;9.578;2023-07-31T09:15:39;13.77;;;6.40;;
3543;SDS011;1786;52.870;9.578;2023-07-31T09:18:06;14.03;;;5.90;;
3543;SDS011;1786;52.870;9.578;2023-07-31T09:20:34;11.07;;;6.13;;
3543;SDS011;1786;52.870;9.578;2023-07-31T09:23:05;13.17;;;6.20;;
3543;SDS011;1786;52.870;9.578;2023-07-31T09:25:43;12.20;;;6.23;;
3543;SDS011;1786;52.870;9.578;2023-07-31T09:28:10;14.77;;;6.30;;
3543;SDS011;1786;52.870;9.578;2023-07-31T09:30:48;12.53;;;5.27;;
3543;SDS011;1786;52.870;9.578;2023-07-31T09:33:17;12.30;;;5.47;;
3543;SDS011;1786;52.870;9.578;2023-07-31T09:35:45;10.90;;;4.67;;
3543;SDS011;1786;52.870;9.578;2023-07-31T09:38:14;13.40;;;5.03;;
3543;SDS011;1786;52.870;9.578;2023-07-31T09:40:42;7.17;;;4.20;;
3543;SDS011;1786;52.870;9.578;2023-07-31T09:43:13;8.43;;;4.10;;
3543;SDS011;1786;52.870;9.578;2023-07-31T09:45:43;10.83;;;5.33;;
3543;SDS011;1786;52.870;9.578;2023-07-31T09:48:12;11.93;;;4.97;;
3543;SDS011;1786;52.870;9.578;2023-07-31T09:50:44;9.90;;;4.70;;
3543;SDS011;1786;52.870;9.578;2023-07-31T09:53:12;9.30;;;5.17;;
3543;SDS011;1786;52.870;9.578;2023-07-31T09:55:39;8.80;;;4.83;;
3543;SDS011;1786;52.870;9.578;2023-07-31T09:58:09;5.77;;;4.20;;
3543;SDS011;1786;52.870;9.578;2023-07-31T10:00:38;7.40;;;4.00;;
3543;SDS011;1786;52.870;9.578;2023-07-31T10:03:06;4.20;;;3.27;;
3543;SDS011;1786;52.870;9.578;2023-07-31T10:05:40;4.77;;;3.30;;
3543;SDS011;1786;52.870;9.578;2023-07-31T10:08:09;4.83;;;3.50;;
3543;SDS011;1786;52.870;9.578;2023-07-31T10:10:43;8.53;;;4.00;;
3543;SDS011;1786;52.870;9.578;2023-07-31T10:13:12;8.13;;;3.50;;
3543;SDS011;1786;52.870;9.578;2023-07-31T10:15:40;8.70;;;3.97;;
3543;SDS011;1786;52.870;9.578;2023-07-31T10:18:09;5.33;;;3.73;;
3543;SDS011;1786;52.870;9.578;2023-07-31T10:20:37;5.10;;;3.80;;
3543;SDS011;1786;52.870;9.578;2023-07-31T10:23:04;6.33;;;3.57;;
3543;SDS011;1786;52.870;9.578;2023-07-31T10:25:32;3.50;;;3.17;;
3543;SDS011;1786;52.870;9.578;2023-07-31T10:27:59;4.43;;;3.30;;
3543;SDS011;1786;52.870;9.578;2023-07-31T10:30:27;6.30;;;3.57;;
3543;SDS011;1786;52.870;9.578;2023-07-31T10:32:56;5.00;;;3.80;;
3543;SDS011;1786;52.870;9.578;2023-07-31T10:35:24;4.33;;;3.00;;
3543;SDS011;1786;52.870;9.578;2023-07-31T10:37:52;5.57;;;3.70;;
3543;SDS011;1786;52.870;9.578;2023-07-31T10:40:19;6.97;;;3.47;;
3543;SDS011;1786;52.870;9.578;2023-07-31T10:42:52;3.50;;;3.20;;
3543;SDS011;1786;52.870;9.578;2023-07-31T10:47:58;4.03;;;3.33;;
3543;SDS011;1786;52.870;9.578;2023-07-31T10:50:30;4.93;;;3.40;;
3543;SDS011;1786;52.870;9.578;2023-07-31T10:53:01;4.93;;;3.23;;
3543;SDS011;1786;52.870;9.578;2023-07-31T10:55:29;5.17;;;2.90;;
3543;SDS011;1786;52.870;9.578;2023-07-31T10:57:57;2.77;;;2.67;;
3543;SDS011;1786;52.870;9.578;2023-07-31T11:00:41;3.30;;;3.10;;
3543;SDS011;1786;52.870;9.578;2023-07-31T11:03:13;3.63;;;2.83;;
3543;SDS011;1786;52.870;9.578;2023-07-31T11:08:13;3.80;;;3.50;;
3543;SDS011;1786;52.870;9.578;2023-07-31T11:10:42;2.97;;;2.77;;
3543;SDS011;1786;52.870;9.578;2023-07-31T11:13:10;3.33;;;2.73;;
3543;SDS011;1786;52.870;9.578;2023-07-31T11:15:37;3.33;;;2.70;;
3543;SDS011;1786;52.870;9.578;2023-07-31T11:18:04;2.73;;;2.57;;
3543;SDS011;1786;52.870;9.578;2023-07-31T11:20:37;2.40;;;2.30;;
3543;SDS011;1786;52.870;9.578;2023-07-31T11:23:06;3.37;;;3.03;;
3543;SDS011;1786;52.870;9.578;2023-07-31T11:25:34;2.50;;;2.40;;
3543;SDS011;1786;52.870;9.578;2023-07-31T11:28:03;2.60;;;2.50;;
3543;SDS011;1786;52.870;9.578;2023-07-31T11:30:34;3.27;;;2.10;;
3543;SDS011;1786;52.870;9.578;2023-07-31T11:33:02;2.03;;;2.00;;
3543;SDS011;1786;52.870;9.578;2023-07-31T11:35:31;2.50;;;2.30;;
3543;SDS011;1786;52.870;9.578;2023-07-31T11:37:59;1.90;;;1.90;;
3543;SDS011;1786;52.870;9.578;2023-07-31T11:40:27;3.07;;;2.33;;
3543;SDS011;1786;52.870;9.578;2023-07-31T11:42:58;2.13;;;2.10;;
3543;SDS011;1786;52.870;9.578;2023-07-31T11:45:30;5.93;;;2.03;;
3543;SDS011;1786;52.870;9.578;2023-07-31T11:47:57;1.70;;;1.60;;
3543;SDS011;1786;52.870;9.578;2023-07-31T11:50:24;2.40;;;2.17;;
3543;SDS011;1786;52.870;9.578;2023-07-31T11:52:55;2.17;;;2.07;;
3543;SDS011;1786;52.870;9.578;2023-07-31T11:55:27;2.20;;;2.10;;
3543;SDS011;1786;52.870;9.578;2023-07-31T11:57:56;2.17;;;2.07;;
3543;SDS011;1786;52.870;9.578;2023-07-31T12:00:24;1.83;;;1.83;;
3543;SDS011;1786;52.870;9.578;2023-07-31T12:02:52;4.40;;;2.33;;
3543;SDS011;1786;52.870;9.578;2023-07-31T12:05:19;1.67;;;1.67;;
3543;SDS011;1786;52.870;9.578;2023-07-31T12:07:52;2.90;;;1.83;;
3543;SDS011;1786;52.870;9.578;2023-07-31T12:10:23;1.90;;;1.80;;
3543;SDS011;1786;52.870;9.578;2023-07-31T12:12:58;1.90;;;1.80;;
3543;SDS011;1786;52.870;9.578;2023-07-31T12:16:00;2.50;;;1.60;;
3543;SDS011;1786;52.870;9.578;2023-07-31T12:18:25;3.60;;;1.70;;
3543;SDS011;1786;52.870;9.578;2023-07-31T12:20:56;1.53;;;1.50;;
3543;SDS011;1786;52.870;9.578;2023-07-31T12:23:25;1.30;;;1.30;;
3543;SDS011;1786;52.870;9.578;2023-07-31T12:26:15;1.40;;;1.40;;
3543;SDS011;1786;52.870;9.578;2023-07-31T12:28:43;1.40;;;1.40;;
3543;SDS011;1786;52.870;9.578;2023-07-31T12:31:12;1.40;;;1.30;;
3543;SDS011;1786;52.870;9.578;2023-07-31T12:33:40;1.30;;;1.30;;
3543;SDS011;1786;52.870;9.578;2023-07-31T12:36:12;1.10;;;1.10;;
3543;SDS011;1786;52.870;9.578;2023-07-31T12:38:40;1.37;;;1.37;;
3543;SDS011;1786;52.870;9.578;2023-07-31T12:41:08;1.77;;;1.67;;
3543;SDS011;1786;52.870;9.578;2023-07-31T12:43:36;1.70;;;1.70;;
3543;SDS011;1786;52.870;9.578;2023-07-31T12:46:04;2.00;;;2.00;;
3543;SDS011;1786;52.870;9.578;2023-07-31T12:48:31;2.00;;;2.00;;
3543;SDS011;1786;52.870;9.578;2023-07-31T12:50:59;1.63;;;1.60;;
3543;SDS011;1786;52.870;9.578;2023-07-31T12:53:25;1.57;;;1.57;;
3543;SDS011;1786;52.870;9.578;2023-07-31T12:55:52;1.60;;;1.60;;
3543;SDS011;1786;52.870;9.578;2023-07-31T12:58:19;1.87;;;1.87;;
3543;SDS011;1786;52.870;9.578;2023-07-31T13:00:45;9.10;;;2.43;;
3543;SDS011;1786;52.870;9.578;2023-07-31T13:03:12;2.33;;;2.13;;
3543;SDS011;1786;52.870;9.578;2023-07-31T13:05:39;2.17;;;2.10;;
3543;SDS011;1786;52.870;9.578;2023-07-31T13:08:06;2.70;;;1.87;;
3543;SDS011;1786;52.870;9.578;2023-07-31T13:10:32;2.47;;;2.37;;
3543;SDS011;1786;52.870;9.578;2023-07-31T13:12:59;2.40;;;2.30;;
3543;SDS011;1786;52.870;9.578;2023-07-31T13:15:26;2.43;;;2.23;;
3543;SDS011;1786;52.870;9.578;2023-07-31T13:17:52;2.30;;;2.30;;
3543;SDS011;1786;52.870;9.578;2023-07-31T13:20:20;2.23;;;2.17;;
3543;SDS011;1786;52.870;9.578;2023-07-31T13:22:46;2.63;;;2.53;;
3543;SDS011;1786;52.870;9.578;2023-07-31T13:25:13;5.87;;;2.93;;
3543;SDS011;1786;52.870;9.578;2023-07-31T13:27:40;2.83;;;2.73;;
3543;SDS011;1786;52.870;9.578;2023-07-31T13:30:07;4.93;;;2.53;;
3543;SDS011;1786;52.870;9.578;2023-07-31T13:32:34;2.37;;;2.27;;
3543;SDS011;1786;52.870;9.578;2023-07-31T13:35:05;2.60;;;2.50;;
3543;SDS011;1786;52.870;9.578;2023-07-31T13:37:33;3.20;;;2.53;;
3543;SDS011;1786;52.870;9.578;2023-07-31T13:40:01;3.00;;;2.80;;
3543;SDS011;1786;52.870;9.578;2023-07-31T13:42:27;2.67;;;2.57;;
3543;SDS011;1786;52.870;9.578;2023-07-31T13:44:55;3.50;;;3.30;;
3543;SDS011;1786;52.870;9.578;2023-07-31T13:47:23;3.47;;;3.17;;
3543;SDS011;1786;52.870;9.578;2023-07-31T13:49:50;3.40;;;3.20;;
3543;SDS011;1786;52.870;9.578;2023-07-31T13:52:17;3.63;;;3.33;;
3543;SDS011;1786;52.870;9.578;2023-07-31T13:54:43;3.17;;;3.07;;
3543;SDS011;1786;52.870;9.578;2023-07-31T13:57:10;2.97;;;2.87;;
3543;SDS011;1786;52.870;9.578;2023-07-31T13:59:37;2.40;;;2.30;;
3543;SDS011;1786;52.870;9.578;2023-07-31T14:02:04;3.20;;;3.07;;
3543;SDS011;1786;52.870;9.578;2023-07-31T14:04:31;3.17;;;2.97;;
3543;SDS011;1786;52.870;9.578;2023-07-31T14:06:58;2.50;;;2.47;;
3543;SDS011;1786;52.870;9.578;2023-07-31T14:09:24;2.70;;;2.50;;
3543;SDS011;1786;52.870;9.578;2023-07-31T14:11:52;3.00;;;2.53;;
3543;SDS011;1786;52.870;9.578;2023-07-31T14:14:18;2.43;;;2.33;;
3543;SDS011;1786;52.870;9.578;2023-07-31T14:16:46;2.23;;;2.13;;
3543;SDS011;1786;52.870;9.578;2023-07-31T14:19:13;6.30;;;2.47;;
3543;SDS011;1786;52.870;9.578;2023-07-31T14:21:40;3.00;;;2.80;;
3543;SDS011;1786;52.870;9.578;2023-07-31T14:24:06;2.47;;;2.37;;
3543;SDS011;1786;52.870;9.578;2023-07-31T14:26:33;2.47;;;2.37;;
3543;SDS011;1786;52.870;9.578;2023-07-31T14:29:00;2.20;;;2.10;;
3543;SDS011;1786;52.870;9.578;2023-07-31T14:31:27;2.47;;;2.37;;
3543;SDS011;1786;52.870;9.578;2023-07-31T14:33:54;2.33;;;2.27;;
3543;SDS011;1786;52.870;9.578;2023-07-31T14:36:23;2.33;;;2.23;;
3543;SDS011;1786;52.870;9.578;2023-07-31T14:38:50;2.40;;;2.30;;
3543;SDS011;1786;52.870;9.578;2023-07-31T14:41:17;2.83;;;2.73;;
3543;SDS011;1786;52.870;9.578;2023-07-31T14:43:44;3.27;;;2.07;;
3543;SDS011;1786;52.870;9.578;2023-07-31T14:46:11;3.17;;;2.30;;
3543;SDS011;1786;52.870;9.578;2023-07-31T14:48:37;4.20;;;2.30;;
3543;SDS011;1786;52.870;9.578;2023-07-31T14:51:04;2.13;;;1.53;;
3543;SDS011;1786;52.870;9.578;2023-07-31T14:53:31;8.23;;;1.93;;
3543;SDS011;1786;52.870;9.578;2023-07-31T14:55:57;2.10;;;2.00;;
3543;SDS011;1786;52.870;9.578;2023-07-31T14:58:24;3.00;;;2.10;;
3543;SDS011;1786;52.870;9.578;2023-07-31T15:00:51;3.53;;;2.00;;
3543;SDS011;1786;52.870;9.578;2023-07-31T15:03:17;2.00;;;2.00;;
3543;SDS011;1786;52.870;9.578;2023-07-31T15:05:44;2.00;;;2.00;;
3543;SDS011;1786;52.870;9.578;2023-07-31T15:08:11;2.07;;;2.07;;
3543;SDS011;1786;52.870;9.578;2023-07-31T15:10:38;2.50;;;2.40;;
3543;SDS011;1786;52.870;9.578;2023-07-31T15:13:05;4.20;;;2.30;;
3543;SDS011;1786;52.870;9.578;2023-07-31T15:15:32;2.77;;;2.57;;
3543;SDS011;1786;52.870;9.578;2023-07-31T15:17:58;2.13;;;2.13;;
3543;SDS011;1786;52.870;9.578;2023-07-31T15:20:25;3.27;;;2.40;;
3543;SDS011;1786;52.870;9.578;2023-07-31T15:22:52;4.10;;;2.20;;
3543;SDS011;1786;52.870;9.578;2023-07-31T15:25:19;2.53;;;2.40;;
3543;SDS011;1786;52.870;9.578;2023-07-31T15:27:45;2.50;;;2.40;;
3543;SDS011;1786;52.870;9.578;2023-07-31T15:30:12;4.33;;;3.27;;
3543;SDS011;1786;52.870;9.578;2023-07-31T15:32:39;7.33;;;2.93;;